RYR45C EHAM-EIDW
Flight info
| Callsign | RYR45C |
|---|---|
| Flight time | 1h 15m |
| Altitude | 38000 |
| Route | BERGI L60 PENIL UL28 LELDO M145 BAGSO BAGSO4L |
| Aircraft | B738/M-SDE2E3FGHIRWXY/LB1 |
Departure
| Time | 2026-05-06 16:32 |
|---|---|
| Airport | Amsterdam Airport Schiphol (EHAM) |
Arrival
| Time | 2026-05-06 17:47 |
|---|---|
| Airport | Dublin Airport (EIDW) |
| Time | Latitude | Longitude | Altitude | Speed | Heading |
|---|---|---|---|---|---|
| 2026-05-06 15:53 | 52.30336 | 4.76211 | -3 ft | 0 kts | 58° |
| 2026-05-06 16:22 | 52.30333 | 4.76203 | -3 ft | 3 kts | 59° |
| 2026-05-06 16:22 | 52.30324 | 4.76166 | -3 ft | 4 kts | 96° |
| 2026-05-06 16:22 | 52.30334 | 4.76132 | -3 ft | 4 kts | 146° |
| 2026-05-06 16:23 | 52.30343 | 4.76123 | -3 ft | 1 kts | 149° |
| 2026-05-06 16:26 | 52.30321 | 4.76145 | -3 ft | 12 kts | 149° |
| 2026-05-06 16:26 | 52.30203 | 4.76234 | -3 ft | 12 kts | 195° |
| 2026-05-06 16:26 | 52.30146 | 4.76133 | -3 ft | 12 kts | 238° |
| 2026-05-06 16:26 | 52.30101 | 4.76017 | -3 ft | 12 kts | 238° |
| 2026-05-06 16:27 | 52.30058 | 4.75903 | -3 ft | 12 kts | 238° |
| 2026-05-06 16:27 | 52.30015 | 4.75793 | -3 ft | 11 kts | 238° |
| 2026-05-06 16:27 | 52.29974 | 4.75686 | -3 ft | 11 kts | 238° |
| 2026-05-06 16:27 | 52.29935 | 4.75583 | -3 ft | 11 kts | 238° |
| 2026-05-06 16:28 | 52.29896 | 4.75482 | -3 ft | 10 kts | 238° |
| 2026-05-06 16:28 | 52.29858 | 4.75384 | -3 ft | 10 kts | 238° |
| 2026-05-06 16:28 | 52.29830 | 4.75282 | -3 ft | 10 kts | 261° |
| 2026-05-06 16:28 | 52.29880 | 4.75117 | -3 ft | 24 kts | 312° |
| 2026-05-06 16:29 | 52.29991 | 4.74918 | -3 ft | 23 kts | 312° |
| 2026-05-06 16:29 | 52.30096 | 4.74725 | -3 ft | 22 kts | 311° |
| 2026-05-06 16:29 | 52.30196 | 4.74536 | -3 ft | 22 kts | 311° |
| 2026-05-06 16:29 | 52.30294 | 4.74354 | -3 ft | 21 kts | 310° |
| 2026-05-06 16:30 | 52.30388 | 4.74175 | -3 ft | 20 kts | 310° |
| 2026-05-06 16:30 | 52.30418 | 4.74035 | -3 ft | 20 kts | 259° |
| 2026-05-06 16:30 | 52.30408 | 4.73917 | -6 ft | 0 kts | 271° |
| 2026-05-06 16:30 | 52.30408 | 4.73916 | -6 ft | 1 kts | 271° |
| 2026-05-06 16:31 | 52.30439 | 4.73771 | -6 ft | 18 kts | 329° |
| 2026-05-06 16:31 | 52.30612 | 4.73775 | -7 ft | 55 kts | 4° |
| 2026-05-06 16:31 | 52.31330 | 4.73855 | -5 ft | 148 kts | 3° |
| 2026-05-06 16:31 | 52.32615 | 4.73910 | 130 ft | 210 kts | 2° |
| 2026-05-06 16:32 | 52.34062 | 4.73983 | 1325 ft | 213 kts | 2° |
| 2026-05-06 16:32 | 52.35479 | 4.73113 | 2345 ft | 226 kts | 332° |
| 2026-05-06 16:32 | 52.36871 | 4.71639 | 2856 ft | 248 kts | 332° |
| 2026-05-06 16:32 | 52.38351 | 4.70104 | 3795 ft | 253 kts | 331° |
| 2026-05-06 16:33 | 52.39859 | 4.68581 | 4820 ft | 258 kts | 331° |
| 2026-05-06 16:33 | 52.41412 | 4.67056 | 5787 ft | 263 kts | 331° |
| 2026-05-06 16:33 | 52.42990 | 4.65537 | 6658 ft | 269 kts | 331° |
| 2026-05-06 16:34 | 52.46265 | 4.62448 | 8564 ft | 276 kts | 331° |
| 2026-05-06 16:34 | 52.47969 | 4.60860 | 9499 ft | 280 kts | 330° |
| 2026-05-06 16:34 | 52.49661 | 4.59291 | 10337 ft | 287 kts | 330° |
| 2026-05-06 16:34 | 52.51469 | 4.57617 | 10658 ft | 312 kts | 330° |
| 2026-05-06 16:35 | 52.53420 | 4.55813 | 11130 ft | 328 kts | 330° |
| 2026-05-06 16:35 | 52.55430 | 4.53957 | 11949 ft | 332 kts | 330° |
| 2026-05-06 16:35 | 52.57450 | 4.52091 | 12859 ft | 335 kts | 329° |
| 2026-05-06 16:35 | 52.59501 | 4.50195 | 13668 ft | 341 kts | 329° |
| 2026-05-06 16:36 | 52.61587 | 4.48264 | 14412 ft | 345 kts | 329° |
| 2026-05-06 16:36 | 52.63687 | 4.46319 | 15147 ft | 349 kts | 329° |
| 2026-05-06 16:36 | 52.65816 | 4.44346 | 15915 ft | 353 kts | 328° |
| 2026-05-06 16:36 | 52.67976 | 4.42342 | 16604 ft | 359 kts | 328° |
| 2026-05-06 16:37 | 52.70162 | 4.40312 | 17349 ft | 363 kts | 328° |
| 2026-05-06 16:37 | 52.72368 | 4.38237 | 18057 ft | 367 kts | 325° |
| 2026-05-06 16:37 | 52.74304 | 4.35513 | 18702 ft | 367 kts | 308° |
| 2026-05-06 16:37 | 52.75717 | 4.32019 | 19321 ft | 367 kts | 293° |
| 2026-05-06 16:38 | 52.76611 | 4.28083 | 20047 ft | 366 kts | 287° |
| 2026-05-06 16:38 | 52.77413 | 4.24054 | 20532 ft | 374 kts | 286° |
| 2026-05-06 16:38 | 52.78206 | 4.19959 | 21232 ft | 374 kts | 285° |
| 2026-05-06 16:38 | 52.79004 | 4.15840 | 21803 ft | 380 kts | 285° |
| 2026-05-06 16:39 | 52.79819 | 4.11668 | 22393 ft | 383 kts | 286° |
| 2026-05-06 16:39 | 52.80647 | 4.07470 | 23029 ft | 386 kts | 286° |
| 2026-05-06 16:39 | 52.81489 | 4.03227 | 23539 ft | 391 kts | 286° |
| 2026-05-06 16:39 | 52.82340 | 3.98948 | 24032 ft | 393 kts | 286° |
| 2026-05-06 16:40 | 52.83200 | 3.94636 | 24567 ft | 395 kts | 286° |
| 2026-05-06 16:40 | 52.84062 | 3.90300 | 25018 ft | 399 kts | 286° |
| 2026-05-06 16:40 | 52.84933 | 3.85912 | 25497 ft | 402 kts | 285° |
| 2026-05-06 16:40 | 52.85795 | 3.81564 | 25959 ft | 404 kts | 285° |
| 2026-05-06 16:41 | 52.86671 | 3.77129 | 26415 ft | 407 kts | 285° |
| 2026-05-06 16:41 | 52.87551 | 3.72665 | 26848 ft | 410 kts | 285° |
| 2026-05-06 16:41 | 52.88439 | 3.68149 | 27276 ft | 413 kts | 285° |
| 2026-05-06 16:41 | 52.89329 | 3.63615 | 27721 ft | 415 kts | 285° |
| 2026-05-06 16:42 | 52.90221 | 3.59059 | 28141 ft | 418 kts | 285° |
| 2026-05-06 16:42 | 52.91121 | 3.54450 | 28553 ft | 421 kts | 285° |
| 2026-05-06 16:42 | 52.92023 | 3.49821 | 28960 ft | 423 kts | 285° |
| 2026-05-06 16:42 | 52.92926 | 3.45170 | 29359 ft | 426 kts | 285° |
| 2026-05-06 16:43 | 52.93837 | 3.40475 | 29733 ft | 428 kts | 284° |
| 2026-05-06 16:43 | 52.94748 | 3.35765 | 30086 ft | 431 kts | 284° |
| 2026-05-06 16:43 | 52.95662 | 3.31028 | 30399 ft | 433 kts | 284° |
| 2026-05-06 16:43 | 52.96579 | 3.26268 | 30721 ft | 434 kts | 284° |
| 2026-05-06 16:44 | 52.97484 | 3.21555 | 31026 ft | 436 kts | 284° |
| 2026-05-06 16:44 | 52.98403 | 3.16751 | 31384 ft | 436 kts | 284° |
| 2026-05-06 16:44 | 52.99315 | 3.11966 | 31836 ft | 434 kts | 284° |
| 2026-05-06 16:44 | 53.00220 | 3.07197 | 32312 ft | 431 kts | 284° |
| 2026-05-06 16:45 | 53.01118 | 3.02454 | 32742 ft | 430 kts | 284° |
| 2026-05-06 16:45 | 53.02012 | 2.97717 | 33130 ft | 429 kts | 284° |
| 2026-05-06 16:45 | 53.02902 | 2.92994 | 33527 ft | 428 kts | 284° |
| 2026-05-06 16:45 | 53.03788 | 2.88278 | 33955 ft | 426 kts | 284° |
| 2026-05-06 16:46 | 53.04670 | 2.83576 | 34279 ft | 426 kts | 284° |
| 2026-05-06 16:46 | 53.05548 | 2.78877 | 34541 ft | 427 kts | 284° |
| 2026-05-06 16:46 | 53.06427 | 2.74165 | 34789 ft | 427 kts | 284° |
| 2026-05-06 16:46 | 53.07305 | 2.69445 | 35082 ft | 427 kts | 284° |
| 2026-05-06 16:47 | 53.08181 | 2.64729 | 35370 ft | 427 kts | 284° |
| 2026-05-06 16:47 | 53.09056 | 2.60007 | 35630 ft | 427 kts | 284° |
| 2026-05-06 16:47 | 53.09930 | 2.55278 | 35876 ft | 428 kts | 284° |
| 2026-05-06 16:47 | 53.10784 | 2.50545 | 36154 ft | 427 kts | 282° |
| 2026-05-06 16:48 | 53.11360 | 2.45716 | 36404 ft | 425 kts | 276° |
| 2026-05-06 16:48 | 53.11772 | 2.40853 | 36639 ft | 425 kts | 275° |
| 2026-05-06 16:48 | 53.12147 | 2.35964 | 36869 ft | 425 kts | 275° |
| 2026-05-06 16:48 | 53.12514 | 2.31080 | 37125 ft | 425 kts | 275° |
| 2026-05-06 16:49 | 53.12885 | 2.26198 | 37364 ft | 426 kts | 275° |
| 2026-05-06 16:49 | 53.13259 | 2.21364 | 37582 ft | 426 kts | 275° |
| 2026-05-06 16:49 | 53.13648 | 2.16398 | 37804 ft | 427 kts | 275° |
| 2026-05-06 16:49 | 53.14036 | 2.11501 | 37996 ft | 428 kts | 276° |
| 2026-05-06 16:50 | 53.14427 | 2.06566 | 37976 ft | 431 kts | 276° |
| 2026-05-06 16:50 | 53.15211 | 1.96650 | 37992 ft | 431 kts | 276° |
| 2026-05-06 16:51 | 53.15977 | 1.86880 | 37985 ft | 425 kts | 275° |
| 2026-05-06 16:51 | 53.16731 | 1.77129 | 37997 ft | 423 kts | 275° |
| 2026-05-06 16:52 | 53.17474 | 1.67406 | 37985 ft | 422 kts | 275° |
| 2026-05-06 16:52 | 53.18209 | 1.57686 | 38000 ft | 422 kts | 275° |
| 2026-05-06 16:53 | 53.18935 | 1.47971 | 38003 ft | 423 kts | 275° |
| 2026-05-06 16:53 | 53.19655 | 1.38229 | 38007 ft | 424 kts | 275° |
| 2026-05-06 16:54 | 53.20370 | 1.28450 | 38006 ft | 426 kts | 275° |
| 2026-05-06 16:54 | 53.21081 | 1.18606 | 38008 ft | 428 kts | 275° |
| 2026-05-06 16:55 | 53.21786 | 1.08738 | 38008 ft | 429 kts | 275° |
| 2026-05-06 16:55 | 53.22481 | 0.98890 | 37999 ft | 431 kts | 275° |
| 2026-05-06 16:56 | 53.23178 | 0.88882 | 38009 ft | 432 kts | 275° |
| 2026-05-06 16:56 | 53.23863 | 0.78929 | 38015 ft | 432 kts | 275° |
| 2026-05-06 16:57 | 53.24537 | 0.69026 | 38012 ft | 432 kts | 275° |
| 2026-05-06 16:57 | 53.25206 | 0.59059 | 38014 ft | 431 kts | 275° |
| 2026-05-06 16:58 | 53.25756 | 0.50771 | 38019 ft | 431 kts | 275° |
| 2026-05-06 16:58 | 53.26408 | 0.40829 | 38019 ft | 430 kts | 275° |
| 2026-05-06 16:59 | 53.27051 | 0.30903 | 38024 ft | 429 kts | 274° |
| 2026-05-06 16:59 | 53.27684 | 0.20992 | 38041 ft | 429 kts | 274° |
| 2026-05-06 17:00 | 53.28309 | 0.11101 | 38039 ft | 428 kts | 274° |
| 2026-05-06 17:00 | 53.28961 | 0.01220 | 38037 ft | 428 kts | 276° |
| 2026-05-06 17:01 | 53.29955 | -0.08564 | 38035 ft | 428 kts | 278° |
| 2026-05-06 17:01 | 53.31021 | -0.18381 | 38045 ft | 428 kts | 278° |
| 2026-05-06 17:02 | 53.32036 | -0.28182 | 38048 ft | 428 kts | 278° |
| 2026-05-06 17:02 | 53.33032 | -0.38022 | 38056 ft | 429 kts | 278° |
| 2026-05-06 17:03 | 53.34022 | -0.47846 | 38039 ft | 429 kts | 278° |
| 2026-05-06 17:03 | 53.35014 | -0.57707 | 38051 ft | 429 kts | 278° |
| 2026-05-06 17:04 | 53.35997 | -0.67584 | 38058 ft | 430 kts | 278° |
| 2026-05-06 17:04 | 53.36958 | -0.77482 | 38044 ft | 431 kts | 277° |
| 2026-05-06 17:05 | 53.37906 | -0.87325 | 38052 ft | 431 kts | 278° |
| 2026-05-06 17:05 | 53.38871 | -0.97312 | 38045 ft | 431 kts | 278° |
| 2026-05-06 17:06 | 53.39845 | -1.07151 | 38054 ft | 431 kts | 278° |
| 2026-05-06 17:06 | 53.40793 | -1.17076 | 38041 ft | 431 kts | 278° |
| 2026-05-06 17:07 | 53.41719 | -1.27013 | 38042 ft | 431 kts | 277° |
| 2026-05-06 17:07 | 53.42635 | -1.36943 | 38033 ft | 430 kts | 278° |
| 2026-05-06 17:08 | 53.43567 | -1.46851 | 38046 ft | 430 kts | 278° |
| 2026-05-06 17:08 | 53.44483 | -1.56757 | 38038 ft | 430 kts | 277° |
| 2026-05-06 17:09 | 53.45383 | -1.66666 | 38036 ft | 429 kts | 277° |
| 2026-05-06 17:09 | 53.46276 | -1.76556 | 38032 ft | 429 kts | 277° |
| 2026-05-06 17:10 | 53.47156 | -1.86452 | 38028 ft | 428 kts | 277° |
| 2026-05-06 17:10 | 53.48014 | -1.96341 | 38016 ft | 428 kts | 277° |
| 2026-05-06 17:11 | 53.48864 | -2.06226 | 38026 ft | 428 kts | 277° |
| 2026-05-06 17:11 | 53.49709 | -2.16117 | 38019 ft | 428 kts | 277° |
| 2026-05-06 17:12 | 53.50549 | -2.26020 | 38027 ft | 428 kts | 277° |
| 2026-05-06 17:12 | 53.51384 | -2.35921 | 38021 ft | 428 kts | 277° |
| 2026-05-06 17:13 | 53.52212 | -2.45835 | 38020 ft | 429 kts | 277° |
| 2026-05-06 17:13 | 53.53032 | -2.55751 | 38005 ft | 425 kts | 277° |
| 2026-05-06 17:13 | 53.53432 | -2.60617 | 37813 ft | 415 kts | 277° |
| 2026-05-06 17:14 | 53.53822 | -2.65402 | 37408 ft | 411 kts | 277° |
| 2026-05-06 17:14 | 53.54208 | -2.70153 | 36881 ft | 410 kts | 277° |
| 2026-05-06 17:14 | 53.54591 | -2.74896 | 36423 ft | 408 kts | 277° |
| 2026-05-06 17:14 | 53.54968 | -2.79601 | 36042 ft | 404 kts | 277° |
| 2026-05-06 17:15 | 53.55341 | -2.84266 | 35681 ft | 400 kts | 277° |
| 2026-05-06 17:15 | 53.55704 | -2.88822 | 35323 ft | 397 kts | 277° |
| 2026-05-06 17:15 | 53.56070 | -2.93455 | 34950 ft | 393 kts | 277° |
| 2026-05-06 17:15 | 53.56428 | -2.98003 | 34580 ft | 390 kts | 277° |
| 2026-05-06 17:16 | 53.56782 | -3.02512 | 34224 ft | 388 kts | 277° |
| 2026-05-06 17:16 | 53.57131 | -3.06993 | 33845 ft | 385 kts | 277° |
| 2026-05-06 17:16 | 53.57476 | -3.11438 | 33439 ft | 382 kts | 277° |
| 2026-05-06 17:16 | 53.57812 | -3.15789 | 33034 ft | 379 kts | 277° |
| 2026-05-06 17:17 | 53.58148 | -3.20170 | 32624 ft | 376 kts | 277° |
| 2026-05-06 17:17 | 53.58481 | -3.24524 | 32238 ft | 374 kts | 277° |
| 2026-05-06 17:17 | 53.58813 | -3.28880 | 31807 ft | 373 kts | 277° |
| 2026-05-06 17:17 | 53.59140 | -3.33203 | 31390 ft | 371 kts | 276° |
| 2026-05-06 17:18 | 53.59463 | -3.37498 | 31019 ft | 369 kts | 276° |
| 2026-05-06 17:18 | 53.59783 | -3.41762 | 30671 ft | 366 kts | 276° |
| 2026-05-06 17:18 | 53.60099 | -3.45989 | 30334 ft | 363 kts | 276° |
| 2026-05-06 17:18 | 53.60411 | -3.50194 | 29965 ft | 360 kts | 276° |
| 2026-05-06 17:19 | 53.60720 | -3.54366 | 29552 ft | 358 kts | 276° |
| 2026-05-06 17:19 | 53.61025 | -3.58506 | 29129 ft | 355 kts | 276° |
| 2026-05-06 17:19 | 53.61326 | -3.62620 | 28716 ft | 352 kts | 276° |
| 2026-05-06 17:19 | 53.61735 | -3.66677 | 28303 ft | 350 kts | 283° |
| 2026-05-06 17:20 | 53.62523 | -3.70546 | 27895 ft | 348 kts | 290° |
| 2026-05-06 17:20 | 53.63438 | -3.74306 | 27522 ft | 346 kts | 291° |
| 2026-05-06 17:20 | 53.64356 | -3.78032 | 27128 ft | 343 kts | 291° |
| 2026-05-06 17:20 | 53.65254 | -3.81713 | 27032 ft | 337 kts | 291° |
| 2026-05-06 17:21 | 53.66126 | -3.85332 | 27027 ft | 338 kts | 290° |
| 2026-05-06 17:21 | 53.67021 | -3.89081 | 27032 ft | 343 kts | 290° |
| 2026-05-06 17:21 | 53.67909 | -3.92820 | 27024 ft | 343 kts | 290° |
| 2026-05-06 17:21 | 53.68798 | -3.96552 | 27013 ft | 342 kts | 291° |
| 2026-05-06 17:22 | 53.69684 | -4.00205 | 27004 ft | 339 kts | 291° |
| 2026-05-06 17:22 | 53.70574 | -4.03856 | 26765 ft | 335 kts | 291° |
| 2026-05-06 17:22 | 53.71400 | -4.07537 | 26175 ft | 339 kts | 285° |
| 2026-05-06 17:22 | 53.71867 | -4.11479 | 25427 ft | 347 kts | 275° |
| 2026-05-06 17:23 | 53.72038 | -4.15588 | 24719 ft | 354 kts | 273° |
| 2026-05-06 17:23 | 53.72168 | -4.19775 | 24010 ft | 360 kts | 272° |
| 2026-05-06 17:23 | 53.72298 | -4.24029 | 23267 ft | 365 kts | 273° |
| 2026-05-06 17:23 | 53.72438 | -4.28341 | 22430 ft | 370 kts | 273° |
| 2026-05-06 17:24 | 53.72587 | -4.32698 | 21636 ft | 373 kts | 273° |
| 2026-05-06 17:24 | 53.72743 | -4.37081 | 20856 ft | 376 kts | 273° |
| 2026-05-06 17:24 | 53.72898 | -4.41485 | 20401 ft | 371 kts | 273° |
| 2026-05-06 17:24 | 53.73047 | -4.45754 | 20241 ft | 357 kts | 273° |
| 2026-05-06 17:25 | 53.73190 | -4.49867 | 20107 ft | 345 kts | 273° |
| 2026-05-06 17:25 | 53.73327 | -4.53837 | 20027 ft | 332 kts | 273° |
| 2026-05-06 17:25 | 53.73456 | -4.57638 | 20009 ft | 318 kts | 273° |
| 2026-05-06 17:25 | 53.73580 | -4.61292 | 19997 ft | 305 kts | 273° |
| 2026-05-06 17:26 | 53.73699 | -4.64834 | 20008 ft | 301 kts | 273° |
| 2026-05-06 17:26 | 53.73817 | -4.68364 | 20020 ft | 302 kts | 273° |
| 2026-05-06 17:26 | 53.73935 | -4.71935 | 20023 ft | 306 kts | 273° |
| 2026-05-06 17:26 | 53.74054 | -4.75529 | 20030 ft | 307 kts | 273° |
| 2026-05-06 17:27 | 53.74170 | -4.79139 | 19462 ft | 316 kts | 273° |
| 2026-05-06 17:27 | 53.74293 | -4.82952 | 18629 ft | 330 kts | 273° |
| 2026-05-06 17:27 | 53.74421 | -4.86887 | 17723 ft | 341 kts | 273° |
| 2026-05-06 17:27 | 53.74557 | -4.90954 | 16808 ft | 350 kts | 273° |
| 2026-05-06 17:28 | 53.74694 | -4.95104 | 15903 ft | 357 kts | 273° |
| 2026-05-06 17:28 | 53.74833 | -4.99332 | 15027 ft | 363 kts | 273° |
| 2026-05-06 17:28 | 53.74972 | -5.03617 | 14164 ft | 368 kts | 273° |
| 2026-05-06 17:28 | 53.75111 | -5.07954 | 13261 ft | 371 kts | 273° |
| 2026-05-06 17:29 | 53.75224 | -5.12317 | 12332 ft | 373 kts | 270° |
| 2026-05-06 17:29 | 53.74859 | -5.16661 | 11435 ft | 376 kts | 254° |
| 2026-05-06 17:29 | 53.74021 | -5.20784 | 10609 ft | 376 kts | 251° |
| 2026-05-06 17:29 | 53.73155 | -5.24875 | 10373 ft | 361 kts | 251° |
| 2026-05-06 17:30 | 53.72338 | -5.28771 | 10216 ft | 344 kts | 251° |
| 2026-05-06 17:30 | 53.71556 | -5.32556 | 9598 ft | 341 kts | 251° |
| 2026-05-06 17:30 | 53.70785 | -5.36331 | 8942 ft | 340 kts | 251° |
| 2026-05-06 17:30 | 53.70019 | -5.40099 | 8336 ft | 338 kts | 251° |
| 2026-05-06 17:31 | 53.69269 | -5.43782 | 8103 ft | 324 kts | 251° |
| 2026-05-06 17:31 | 53.68551 | -5.47294 | 8012 ft | 309 kts | 251° |
| 2026-05-06 17:31 | 53.68018 | -5.50685 | 7986 ft | 292 kts | 265° |
| 2026-05-06 17:31 | 53.68063 | -5.54013 | 7998 ft | 276 kts | 273° |
| 2026-05-06 17:32 | 53.68169 | -5.57165 | 7985 ft | 262 kts | 272° |
| 2026-05-06 17:32 | 53.68258 | -5.60157 | 7982 ft | 249 kts | 272° |
| 2026-05-06 17:32 | 53.68337 | -5.62997 | 7982 ft | 237 kts | 272° |
| 2026-05-06 17:32 | 53.68193 | -5.65723 | 7988 ft | 233 kts | 250° |
| 2026-05-06 17:33 | 53.67374 | -5.68080 | 8009 ft | 236 kts | 232° |
| 2026-05-06 17:33 | 53.66301 | -5.70184 | 8009 ft | 238 kts | 230° |
| 2026-05-06 17:33 | 53.65146 | -5.72192 | 7993 ft | 240 kts | 218° |
| 2026-05-06 17:33 | 53.63609 | -5.73277 | 7999 ft | 244 kts | 189° |
| 2026-05-06 17:34 | 53.61920 | -5.72989 | 7993 ft | 249 kts | 160° |
| 2026-05-06 17:34 | 53.60500 | -5.71307 | 8005 ft | 253 kts | 134° |
| 2026-05-06 17:34 | 53.59400 | -5.68988 | 8000 ft | 254 kts | 128° |
| 2026-05-06 17:34 | 53.58359 | -5.66569 | 7996 ft | 255 kts | 127° |
| 2026-05-06 17:35 | 53.57315 | -5.64162 | 7994 ft | 254 kts | 131° |
| 2026-05-06 17:35 | 53.55952 | -5.62337 | 8013 ft | 249 kts | 152° |
| 2026-05-06 17:35 | 53.54452 | -5.60868 | 7996 ft | 250 kts | 152° |
| 2026-05-06 17:36 | 53.51466 | -5.57859 | 8002 ft | 250 kts | 151° |
| 2026-05-06 17:36 | 53.49978 | -5.56344 | 7998 ft | 251 kts | 151° |
| 2026-05-06 17:36 | 53.48413 | -5.55123 | 7991 ft | 247 kts | 168° |
| 2026-05-06 17:36 | 53.46728 | -5.54606 | 8003 ft | 246 kts | 174° |
| 2026-05-06 17:37 | 53.45032 | -5.54201 | 7996 ft | 246 kts | 174° |
| 2026-05-06 17:37 | 53.43361 | -5.53783 | 7997 ft | 246 kts | 173° |
| 2026-05-06 17:37 | 53.41663 | -5.53338 | 7997 ft | 246 kts | 173° |
| 2026-05-06 17:37 | 53.39968 | -5.52907 | 7993 ft | 245 kts | 178° |
| 2026-05-06 17:38 | 53.38290 | -5.53164 | 8003 ft | 241 kts | 194° |
| 2026-05-06 17:38 | 53.36654 | -5.53813 | 7993 ft | 242 kts | 196° |
| 2026-05-06 17:38 | 53.35022 | -5.54480 | 7995 ft | 242 kts | 195° |
| 2026-05-06 17:38 | 53.33381 | -5.55126 | 7997 ft | 242 kts | 195° |
| 2026-05-06 17:39 | 53.31740 | -5.55756 | 7992 ft | 242 kts | 195° |
| 2026-05-06 17:39 | 53.30126 | -5.56524 | 7984 ft | 240 kts | 208° |
| 2026-05-06 17:39 | 53.28704 | -5.57958 | 8001 ft | 239 kts | 216° |
| 2026-05-06 17:39 | 53.27335 | -5.59539 | 7994 ft | 239 kts | 216° |
| 2026-05-06 17:40 | 53.25974 | -5.61134 | 7979 ft | 238 kts | 221° |
| 2026-05-06 17:40 | 53.24951 | -5.63300 | 7473 ft | 248 kts | 248° |
| 2026-05-06 17:40 | 53.24689 | -5.65190 | 6980 ft | 259 kts | 268° |
| 2026-05-06 17:40 | 53.25459 | -5.69028 | 5993 ft | 280 kts | 308° |
| 2026-05-06 17:41 | 53.26830 | -5.71434 | 5227 ft | 292 kts | 314° |
| 2026-05-06 17:41 | 53.28272 | -5.73813 | 4959 ft | 286 kts | 314° |
| 2026-05-06 17:41 | 53.29649 | -5.76119 | 4863 ft | 274 kts | 314° |
| 2026-05-06 17:41 | 53.30538 | -5.77632 | 4792 ft | 267 kts | 313° |
| 2026-05-06 17:42 | 53.32262 | -5.80597 | 4116 ft | 273 kts | 313° |
| 2026-05-06 17:42 | 53.33593 | -5.82896 | 3579 ft | 278 kts | 313° |
| 2026-05-06 17:42 | 53.34503 | -5.84474 | 3221 ft | 281 kts | 313° |
| 2026-05-06 17:42 | 53.35869 | -5.86842 | 2707 ft | 284 kts | 313° |
| 2026-05-06 17:43 | 53.37223 | -5.89194 | 2536 ft | 275 kts | 313° |
| 2026-05-06 17:43 | 53.38520 | -5.91445 | 2476 ft | 262 kts | 313° |
| 2026-05-06 17:43 | 53.39698 | -5.93651 | 2458 ft | 247 kts | 300° |
| 2026-05-06 17:43 | 53.40243 | -5.96252 | 2479 ft | 230 kts | 281° |
| 2026-05-06 17:44 | 53.40559 | -5.98801 | 2464 ft | 217 kts | 278° |
| 2026-05-06 17:44 | 53.40754 | -6.01231 | 2454 ft | 204 kts | 274° |
| 2026-05-06 17:44 | 53.40879 | -6.03527 | 2445 ft | 192 kts | 273° |
| 2026-05-06 17:44 | 53.40990 | -6.05704 | 2459 ft | 185 kts | 273° |
| 2026-05-06 17:45 | 53.41104 | -6.07879 | 2270 ft | 190 kts | 274° |
| 2026-05-06 17:45 | 53.41221 | -6.10102 | 2014 ft | 193 kts | 273° |
| 2026-05-06 17:45 | 53.41342 | -6.12360 | 1772 ft | 196 kts | 273° |
| 2026-05-06 17:45 | 53.41464 | -6.14667 | 1485 ft | 201 kts | 274° |
| 2026-05-06 17:46 | 53.41587 | -6.16952 | 1207 ft | 197 kts | 274° |
| 2026-05-06 17:46 | 53.41710 | -6.19215 | 919 ft | 188 kts | 274° |
| 2026-05-06 17:46 | 53.41823 | -6.21318 | 674 ft | 176 kts | 273° |
| 2026-05-06 17:46 | 53.41929 | -6.23270 | 451 ft | 165 kts | 273° |
| 2026-05-06 17:47 | 53.42035 | -6.25130 | 256 ft | 148 kts | 273° |
| 2026-05-06 17:47 | 53.42113 | -6.26678 | 210 ft | 122 kts | 275° |
| 2026-05-06 17:47 | 53.42166 | -6.27555 | 216 ft | 49 kts | 275° |
| 2026-05-06 17:47 | 53.42271 | -6.28054 | 211 ft | 24 kts | 300° |
| 2026-05-06 17:48 | 53.42353 | -6.28094 | 210 ft | 15 kts | 58° |
| 2026-05-06 17:48 | 53.42357 | -6.27926 | 210 ft | 14 kts | 96° |
| 2026-05-06 17:48 | 53.42346 | -6.27764 | 216 ft | 14 kts | 96° |
| 2026-05-06 17:48 | 53.42335 | -6.27609 | 215 ft | 13 kts | 96° |
| 2026-05-06 17:49 | 53.42325 | -6.27460 | 210 ft | 13 kts | 96° |
| 2026-05-06 17:49 | 53.42318 | -6.27314 | 210 ft | 12 kts | 93° |
| 2026-05-06 17:49 | 53.42313 | -6.27172 | 216 ft | 12 kts | 93° |
| 2026-05-06 17:49 | 53.42308 | -6.27033 | 218 ft | 12 kts | 93° |
| 2026-05-06 17:50 | 53.42304 | -6.26898 | 213 ft | 11 kts | 93° |
| 2026-05-06 17:50 | 53.42295 | -6.26767 | 210 ft | 11 kts | 98° |
| 2026-05-06 17:50 | 53.42281 | -6.26570 | 210 ft | 28 kts | 95° |
| 2026-05-06 17:50 | 53.42261 | -6.26212 | 210 ft | 31 kts | 95° |
| 2026-05-06 17:51 | 53.42307 | -6.25893 | 220 ft | 21 kts | 47° |
| 2026-05-06 17:51 | 53.42383 | -6.25760 | 210 ft | 15 kts | 46° |
| 2026-05-06 17:51 | 53.42456 | -6.25634 | 210 ft | 15 kts | 46° |
| 2026-05-06 17:51 | 53.42528 | -6.25516 | 210 ft | 14 kts | 46° |
| 2026-05-06 17:52 | 53.42595 | -6.25401 | 214 ft | 13 kts | 45° |
| 2026-05-06 17:52 | 53.42659 | -6.25292 | 220 ft | 13 kts | 45° |
| 2026-05-06 17:52 | 53.42721 | -6.25187 | 210 ft | 13 kts | 45° |
| 2026-05-06 17:52 | 53.42782 | -6.25086 | 210 ft | 12 kts | 33° |
| 2026-05-06 17:53 | 53.42853 | -6.25165 | 218 ft | 20 kts | 317° |
| 2026-05-06 17:53 | 53.42965 | -6.25176 | 210 ft | 15 kts | 76° |
| 2026-05-06 17:53 | 53.42953 | -6.25001 | 218 ft | 15 kts | 96° |
| 2026-05-06 17:53 | 53.42957 | -6.24891 | 219 ft | 4 kts | 51° |
| 2026-05-06 17:54 | 53.42985 | -6.24881 | 217 ft | 4 kts | 4° |
| 2026-05-06 17:54 | 53.42990 | -6.24880 | 217 ft | 0 kts | 4° |
| 2026-05-06 17:54 | 53.42998 | -6.24879 | 216 ft | 2 kts | 5° |
| 2026-05-06 17:54 | 53.43005 | -6.24878 | 210 ft | 0 kts | 5° |
| 2026-05-06 17:55 | 53.42999 | -6.24879 | 210 ft | 0 kts | 5° |
| 2026-05-06 17:55 | 53.43003 | -6.24879 | 210 ft | 1 kts | 5° |
| 2026-05-06 17:56 | 53.43005 | -6.24878 | 210 ft | 0 kts | 5° |